Last 7 Days

Pierce College

10 Minute Data | America/Los_Angeles
as of 9/20/21 4:25 AM PDT
Date & Time Temp Max (°F) Temp Min (°F) RH (%) Dew Pt (°F) Latest Rain (In) Seasonal Rainfall (In) Soil Temp (°F) Soil Moist (%) Pressure (mb) (mb) Wind Spd (mph) Wind Dir (°) Wind Gust (mph) Wind Gst Dir (°) Leaf Wet Raw (mV) Net Radiation (W/m²) Evap Pan Wind Spd (mph) Evap Pan WindRun (miles) Evap Pan H2O Temp (°F) Evap Pan Level (In)
9/20/21 - 0420 56.6 56.0 86 52.1 0.00 0.01 80.9 23.8 1,013.0 0.6 SSE | 155 1.6 SE | 139 275 -12 0.0 0.1 50.0 3.7
9/20/21 - 0410 56.2 55.9 86 51.9 0.00 0.01 80.9 23.8 1,013.0 0.5 SSE | 157 1.4 S | 184 272 -13 0.1 0.1 49.8 3.7
9/20/21 - 0400 56.2 55.6 86 51.7 0.00 0.01 81.0 23.8 1,013.1 0.7 S | 179 1.9 SSW | 198 271 -14 0.3 0.1 49.0 3.7
9/20/21 - 0350 56.3 56.0 85 51.8 0.00 0.01 81.0 23.8 1,013.2 0.3 SSE | 151 1.2 SE | 134 271 -15 0.0 0.0 48.7 3.7
9/20/21 - 0340 56.5 55.9 85 51.8 0.00 0.01 81.0 23.8 1,013.2 0.6 SE | 146 1.5 SE | 141 269 -15 0.0 0.0 48.5 3.7
9/20/21 - 0330 56.4 56.0 85 51.9 0.00 0.01 81.1 23.8 1,013.1 0.7 SSW | 193 1.7 SSW | 212 267 -15 0.0 0.0 48.4 3.7
9/20/21 - 0320 56.9 56.3 85 52.1 0.00 0.01 81.2 23.8 1,013.2 0.5 SSE | 158 1.2 S | 170 267 -17 0.0 0.0 48.5 3.7
9/20/21 - 0310 57.1 56.9 85 52.6 0.00 0.01 81.1 23.8 1,013.2 0.3 S | 173 1.3 SSE | 165 264 -19 0.0 0.0 48.8 3.7
9/20/21 - 0300 57.1 56.6 85 52.4 0.00 0.01 81.2 23.8 1,013.3 0.2 SSE | 166 0.9 SSE | 162 261 -21 0.0 0.0 49.1 3.7
9/20/21 - 0250 57.1 56.4 84 52.1 0.00 0.01 81.2 23.8 1,013.3 0.1 SSE | 167 1.0 SSE | 168 258 -24 0.1 0.0 49.0 3.7
9/20/21 - 0240 57.6 56.9 85 52.7 0.00 0.01 81.2 23.9 1,013.3 0.5 SSE | 157 1.1 SSE | 157 256 -25 0.0 0.0 49.0 3.7
9/20/21 - 0230 57.2 56.9 84 52.2 0.00 0.01 81.3 23.8 1,013.3 0.1 SSE | 162 0.7 SSE | 157 256 -30 0.0 0.0 49.4 3.7
9/20/21 - 0220 57.6 57.1 84 52.5 0.00 0.01 81.4 23.8 1,013.3 0.6 SSE | 147 1.3 SE | 134 254 -33 0.0 0.0 49.6 3.7
9/20/21 - 0210 57.8 57.2 84 52.7 0.00 0.01 81.3 23.9 1,013.3 0.4 S | 191 1.2 SSW | 213 261 -34 0.0 0.0 49.9 3.7
9/20/21 - 0200 57.8 57.4 84 52.8 0.00 0.01 81.4 23.8 1,013.3 0.5 SSE | 156 1.1 SE | 141 259 -37 0.0 0.0 50.1 3.7
9/20/21 - 0150 58.1 57.5 83 52.7 0.00 0.01 81.5 23.9 1,013.3 0.4 SSE | 156 1.5 SSE | 147 262 -41 0.0 0.0 50.3 3.7
9/20/21 - 0140 58.2 57.8 83 52.8 0.00 0.01 81.5 23.9 1,013.3 0.8 SSE | 167 1.8 S | 191 266 -43 0.0 0.0 50.5 3.7
9/20/21 - 0130 58.5 57.9 82 52.9 0.00 0.01 81.6 23.9 1,013.3 0.4 SSE | 160 1.5 SW | 216 267 -45 0.0 0.0 50.8 3.7
9/20/21 - 0120 59.0 58.3 82 53.2 0.00 0.01 81.6 23.9 1,013.3 0.8 S | 185 1.7 SSW | 200 271 -44 0.0 0.0 50.9 3.7
9/20/21 - 0110 59.3 58.8 82 53.6 0.00 0.01 81.6 23.9 1,013.3 0.3 SSE | 155 0.9 SSE | 166 263 -46 0.0 0.0 51.4 3.7
9/20/21 - 0100 59.4 58.9 82 53.6 0.00 0.01 81.7 23.9 1,013.3 0.5 SSE | 167 1.1 SSE | 162 271 -49 0.0 9.1 51.8 3.7
9/20/21 - 0050 59.3 58.8 81 53.1 0.00 0.01 81.7 23.9 1,013.3 0.6 SSE | 157 2.0 SE | 144 271 -53 0.0 9.1 52.1 3.7
9/20/21 - 0040 59.7 59.1 80 53.4 0.00 0.01 81.7 23.9 1,013.3 1.1 SSE | 152 2.1 SE | 140 272 -52 0.0 9.1 52.0 3.7
9/20/21 - 0030 59.8 59.4 80 53.5 0.00 0.01 81.8 23.9 1,013.3 0.1 S | 188 1.4 S | 184 273 -52 0.1 9.1 52.2 3.7
9/20/21 - 0020 60.2 59.7 79 53.6 0.00 0.01 81.5 23.9 1,013.4 0.6 S | 173 2.1 SSW | 200 273 -52 0.1 9.1 52.4 3.7
9/20/21 - 0010 60.6 60.2 79 53.9 0.00 0.01 81.6 23.9 1,013.5 0.3 S | 183 1.3 SSW | 197 273 -53 0.0 9.1 52.8 3.7
9/20/21 - 0000 61.1 60.3 79 54.1 0.00 0.01 81.8 23.9 1,013.6 0.4 S | 182 1.3 S | 189 272 -53 0.0 9.1 53.2 3.7
9/19/21 - 2350 61.1 60.7 78 54.1 0.00 0.01 81.8 23.9 1,013.6 0.3 S | 174 1.1 SE | 130 272 -53 0.0 9.1 53.7 3.7
9/19/21 - 2340 61.2 60.7 78 53.9 0.00 0.01 81.9 23.9 1,013.6 0.2 S | 171 1.1 S | 170 271 -54 0.0 9.1 54.1 3.7
9/19/21 - 2330 61.1 60.9 76 53.5 0.00 0.01 82.0 23.9 1,013.7 0.4 S | 175 0.9 SSE | 166 272 -55 0.0 9.1 54.3 3.7
9/19/21 - 2320 61.8 61.0 76 53.8 0.00 0.01 82.1 23.9 1,013.6 0.6 SSE | 148 1.4 S | 180 272 -55 0.1 9.1 54.6 3.7
9/19/21 - 2310 62.1 61.7 76 54.4 0.00 0.01 82.2 23.9 1,013.7 0.3 SSE | 156 1.1 S | 187 271 -55 0.0 9.1 54.9 3.7
9/19/21 - 2300 62.2 61.8 76 54.6 0.00 0.01 82.3 23.9 1,013.6 0.1 S | 176 0.6 S | 191 272 -55 0.0 9.1 55.5 3.7
9/19/21 - 2250 62.3 61.8 75 54.0 0.00 0.01 82.4 23.9 1,013.5 0.2 SE | 140 0.8 SSE | 150 271 -57 0.0 9.1 56.0 3.7
9/19/21 - 2240 63.1 62.3 74 54.4 0.00 0.01 82.4 23.9 1,013.6 0.3 SSE | 165 1.5 SE | 141 271 -57 0.0 9.1 56.2 3.7
9/19/21 - 2230 63.3 62.8 75 54.8 0.00 0.01 82.3 23.9 1,013.6 0.1 ENE | 65 1.2 N | 354 271 -57 0.0 9.1 56.7 3.7
9/19/21 - 2220 63.5 62.9 73 54.4 0.00 0.01 82.5 23.9 1,013.7 0.1 E | 91 0.6 E | 90 271 -57 0.0 9.1 57.2 3.7
9/19/21 - 2210 63.8 63.3 72 54.5 0.00 0.01 82.6 23.9 1,013.6 0.1 SSE | 149 0.8 SSW | 204 271 -58 0.0 9.1 57.8 3.7
9/19/21 - 2200 64.5 63.7 71 54.4 0.00 0.01 82.5 23.9 1,013.6 0.3 SSW | 207 1.2 SW | 217 270 -58 0.0 9.1 58.8 3.7
9/19/21 - 2150 65.1 64.3 70 54.6 0.00 0.01 82.5 23.9 1,013.6 0.2 SSE | 163 0.9 SE | 144 270 -59 0.0 9.1 59.9 3.7
9/19/21 - 2140 65.6 64.9 69 54.8 0.00 0.01 82.5 23.9 1,013.6 0.1 ENE | 74 0.7 ENE | 69 270 -61 0.0 9.1 61.0 3.7
9/19/21 - 2130 65.6 65.3 69 55.0 0.00 0.01 82.6 23.9 1,013.6 0.8 E | 90 2.3 ENE | 59 270 -62 0.0 9.1 61.2 3.7
9/19/21 - 2120 66.0 65.4 68 54.9 0.00 0.01 81.8 23.9 1,013.7 0.7 ESE | 104 2.4 E | 80 270 -62 0.0 9.1 60.8 3.7
9/19/21 - 2110 66.4 65.9 68 55.2 0.00 0.01 81.7 23.9 1,013.7 0.6 E | 100 2.2 ENE | 73 270 -62 0.0 9.0 61.1 3.7
9/19/21 - 2100 66.4 66.1 68 55.4 0.00 0.01 81.6 23.9 1,013.6 1.1 ESE | 107 2.2 ESE | 116 270 -63 0.0 9.0 61.3 3.7
9/19/21 - 2050 66.7 66.2 67 55.4 0.00 0.01 81.6 23.9 1,013.5 1.0 ESE | 122 1.9 ESE | 110 269 -63 0.0 9.0 61.9 3.7
9/19/21 - 2040 67.1 66.6 67 55.8 0.00 0.01 81.4 23.9 1,013.4 0.4 E | 89 1.2 E | 90 269 -64 0.0 9.0 62.8 3.7
9/19/21 - 2030 67.6 67.1 67 56.0 0.00 0.01 81.5 23.9 1,013.2 0.7 ESE | 112 2.1 E | 80 269 -65 0.0 9.0 63.5 3.7
9/19/21 - 2020 67.9 67.4 66 56.0 0.00 0.01 81.3 23.9 1,013.2 1.1 ESE | 122 2.1 E | 80 269 -66 0.1 9.0 64.1 3.8
9/19/21 - 2010 68.6 67.8 65 56.0 0.00 0.01 81.3 23.9 1,013.2 0.8 ESE | 110 2.3 E | 101 269 -67 0.1 9.0 64.6 3.8
9/19/21 - 2000 69.3 68.6 63 56.0 0.00 0.01 81.3 23.9 1,013.1 0.9 E | 98 2.4 ESE | 110 268 -67 0.2 9.0 64.9 3.8
9/19/21 - 1950 69.6 69.2 62 55.9 0.00 0.01 81.1 23.9 1,013.0 0.5 ENE | 60 1.5 ENE | 58 268 -68 0.0 9.0 65.3 3.8
9/19/21 - 1940 70.2 69.4 62 56.0 0.00 0.01 81.1 23.9 1,012.9 0.6 ESE | 120 1.4 NE | 53 268 -69 0.1 9.0 66.4 3.7
9/19/21 - 1930 71.0 70.1 60 56.0 0.00 0.01 81.0 23.9 1,012.8 0.6 ESE | 114 2.0 E | 79 268 -70 0.3 9.0 67.6 3.7
9/19/21 - 1920 71.5 70.9 59 56.2 0.00 0.01 80.9 23.9 1,012.8 0.7 NE | 56 1.5 NNE | 25 268 -72 0.0 8.9 68.8 3.8
9/19/21 - 1910 72.1 71.3 58 56.1 0.00 0.01 80.9 23.9 1,012.7 0.7 E | 96 2.4 SSE | 149 268 -72 0.4 8.9 70.0 3.8
9/19/21 - 1900 73.0 72.0 56 56.2 0.00 0.01 80.7 23.9 1,012.7 0.9 E | 98 2.8 E | 98 267 -72 0.1 8.8 71.7 3.8
9/19/21 - 1850 73.9 72.8 55 56.1 0.00 0.01 80.9 23.9 1,012.7 1.6 E | 95 3.2 ESE | 112 267 -68 0.3 8.8 73.6 3.8
9/19/21 - 1840 75.9 73.9 52 56.0 0.00 0.01 80.6 23.9 1,012.8 1.7 E | 89 3.2 ESE | 109 267 -65 0.3 8.8 75.7 3.8
9/19/21 - 1830 77.6 75.8 48 55.9 0.00 0.01 80.6 23.9 1,012.6 1.3 NE | 52 3.1 ESE | 123 266 -55 0.5 8.7 78.1 3.8
9/19/21 - 1820 78.5 77.6 46 55.8 0.00 0.01 80.6 23.9 1,012.6 0.9 NE | 52 2.7 N | 7 266 -31 0.5 8.6 80.0 3.8
9/19/21 - 1810 79.7 78.3 44 55.3 0.00 0.01 80.6 23.8 1,012.6 1.5 NNE | 25 3.9 N | 7 266 -13 0.3 8.6 81.6 3.8
9/19/21 - 1800 82.1 79.6 39 53.8 0.00 0.01 80.5 23.8 1,012.5 1.7 NNE | 13 4.0 NNE | 20 266 6 0.5 8.5 83.2 3.8
9/19/21 - 1750 83.1 82.1 34 51.5 0.00 0.01 80.7 23.8 1,012.5 1.2 NNW | 347 4.3 NNE | 30 266 29 1.2 8.4 84.5 3.8
9/19/21 - 1740 83.2 82.6 36 53.4 0.00 0.01 80.8 23.8 1,012.4 1.6 WNW | 299 4.5 NNW | 334 266 54 1.2 8.2 85.7 3.8
9/19/21 - 1730 84.1 82.4 37 53.9 0.00 0.01 80.7 23.8 1,012.4 3.3 WSW | 238 7.5 S | 185 266 81 2.5 8.0 86.7 3.8
9/19/21 - 1720 85.4 83.9 35 53.8 0.00 0.01 80.6 23.8 1,012.4 1.9 WSW | 250 6.0 WSW | 241 266 106 1.7 7.6 87.6 3.8
9/19/21 - 1710 85.0 84.4 33 52.8 0.00 0.01 80.6 23.7 1,012.4 2.1 WNW | 286 6.8 WSW | 249 265 132 2.0 7.3 88.1 3.8
9/19/21 - 1700 85.1 83.9 35 53.8 0.00 0.01 80.5 23.7 1,012.4 2.0 W | 279 4.9 WSW | 256 265 157 1.9 7.0 88.5 3.8
9/19/21 - 1650 85.4 83.8 37 55.6 0.00 0.01 80.5 23.7 1,012.5 0.8 ESE | 118 2.4 NNE | 30 265 183 0.7 6.7 89.1 3.8
9/19/21 - 1640 84.7 83.6 37 55.4 0.00 0.01 80.5 23.7 1,012.5 1.8 ENE | 77 4.1 ENE | 74 266 206 0.9 6.6 89.4 3.8
9/19/21 - 1630 84.3 83.5 38 55.5 0.00 0.01 80.4 23.7 1,012.6 2.2 NE | 45 3.5 NNE | 24 266 228 0.7 6.4 89.3 3.8
9/19/21 - 1620 84.1 83.5 38 55.5 0.00 0.01 80.3 23.7 1,012.7 2.3 NE | 56 4.6 NE | 53 266 250 1.0 6.3 89.7 3.8
9/19/21 - 1610 84.5 83.5 38 55.5 0.00 0.01 80.2 23.7 1,012.7 2.3 ENE | 58 5.2 E | 88 266 274 0.9 6.1 90.1 3.8
9/19/21 - 1600 84.2 83.7 38 55.4 0.00 0.01 80.2 23.7 1,012.8 2.3 NE | 45 3.9 NNE | 32 266 297 0.7 6.0 90.5 3.8
9/19/21 - 1550 84.6 83.9 37 55.3 0.00 0.01 80.1 23.7 1,012.9 2.4 NE | 44 4.8 ENE | 74 266 322 0.8 5.9 90.6 3.8
9/19/21 - 1540 84.4 83.5 37 55.2 0.00 0.01 80.1 23.7 1,012.9 2.2 E | 81 4.3 NE | 41 266 344 1.1 5.7 90.7 3.8
9/19/21 - 1530 84.4 83.7 37 55.0 0.00 0.01 80.1 23.7 1,013.0 2.5 ENE | 59 5.9 NE | 48 266 363 1.0 5.5 90.8 3.8
9/19/21 - 1520 84.5 83.7 37 54.8 0.00 0.01 80.0 23.6 1,013.2 2.2 NE | 55 6.0 E | 80 266 380 0.7 5.4 91.3 3.8
9/19/21 - 1510 84.3 83.4 37 54.8 0.00 0.01 79.9 23.6 1,013.2 2.5 NE | 38 4.9 NE | 38 265 398 0.9 5.3 91.4 3.8
9/19/21 - 1500 84.4 83.7 37 54.8 0.00 0.01 79.8 23.6 1,013.3 2.3 ENE | 62 4.7 NE | 52 265 415 0.7 5.1 91.8 3.8
9/19/21 - 1450 84.5 83.6 37 54.9 0.00 0.01 79.8 23.6 1,013.4 2.3 ENE | 57 4.0 NNE | 17 265 432 0.9 5.0 91.9 3.8
9/19/21 - 1440 85.0 83.9 36 54.8 0.00 0.01 79.7 23.6 1,013.5 2.6 NE | 53 4.2 SE | 133 264 445 1.3 4.8 92.2 3.8
9/19/21 - 1430 84.5 83.4 37 54.8 0.00 0.01 79.7 23.6 1,013.6 2.3 E | 80 5.7 E | 84 265 460 0.8 4.6 92.3 3.8
9/19/21 - 1420 83.9 83.3 38 55.0 0.00 0.01 79.6 23.6 1,013.7 2.6 ENE | 64 5.5 NNE | 19 265 473 1.2 4.5 92.5 3.8
9/19/21 - 1410 84.4 83.6 36 54.3 0.00 0.01 79.6 23.6 1,013.8 2.6 E | 80 5.5 E | 100 265 484 1.2 4.3 93.5 3.8
9/19/21 - 1400 84.7 83.7 36 54.1 0.00 0.01 79.5 23.6 1,014.0 2.6 ENE | 68 4.8 SE | 127 265 492 1.1 4.1 93.7 3.8
9/19/21 - 1350 84.8 83.8 35 53.3 0.00 0.01 79.5 23.6 1,014.1 2.4 ENE | 77 4.5 E | 82 265 501 1.1 3.9 93.8 3.8
9/19/21 - 1340 85.0 83.4 33 51.9 0.00 0.01 79.4 23.5 1,014.3 1.7 NNE | 31 4.4 N | 0 264 506 0.9 3.7 94.0 3.8
9/19/21 - 1330 83.7 82.7 34 51.8 0.00 0.01 79.4 23.6 1,014.5 1.9 E | 97 3.7 NE | 56 264 513 0.8 3.6 94.0 3.8
9/19/21 - 1320 83.9 82.8 34 52.3 0.00 0.01 79.4 23.5 1,014.6 1.4 ENE | 62 3.5 SE | 134 264 518 0.7 3.4 95.0 3.8
9/19/21 - 1310 83.0 81.1 36 52.7 0.00 0.01 79.4 23.5 1,014.8 1.4 NNE | 17 3.4 NNE | 27 265 523 0.6 3.3 95.5 3.8
9/19/21 - 1300 81.9 81.2 37 52.6 0.00 0.01 79.5 23.5 1,015.0 1.9 E | 94 4.9 E | 97 265 532 0.9 3.2 95.6 3.8
9/19/21 - 1250 81.6 79.8 37 52.6 0.00 0.01 79.4 23.5 1,015.1 1.7 E | 89 5.0 SE | 139 265 534 0.9 3.0 96.1 3.8
9/19/21 - 1240 80.5 79.4 39 53.1 0.00 0.01 79.4 23.5 1,015.2 2.4 E | 82 6.2 SE | 138 265 533 1.1 2.9 95.2 3.8
9/19/21 - 1230 79.8 79.1 40 53.3 0.00 0.01 79.4 23.5 1,015.4 2.0 E | 79 4.6 ENE | 68 265 533 1.0 2.7 95.8 3.8
9/19/21 - 1220 79.7 78.5 41 53.3 0.00 0.01 79.4 23.5 1,015.5 1.6 SE | 126 4.9 SSE | 147 265 528 1.0 2.5 95.2 3.8
9/19/21 - 1210 79.2 78.3 42 53.6 0.00 0.01 79.3 23.5 1,015.7 1.9 NE | 52 4.4 NE | 45 265 524 0.9 2.4 94.4 3.8
9/19/21 - 1200 78.3 77.2 43 53.6 0.00 0.01 79.3 23.5 1,015.7 1.4 N | 10 4.0 N | 1 266 518 0.9 2.2 93.9 3.8
9/19/21 - 1150 77.9 76.9 43 53.5 0.00 0.01 79.4 23.5 1,015.9 1.5 NNE | 30 5.0 ENE | 75 266 512 0.8 2.1 93.3 3.7
9/19/21 - 1140 77.0 76.3 45 53.5 0.00 0.01 79.4 23.5 1,016.0 1.6 N | 7 5.2 NNE | 22 266 504 0.6 1.9 91.8 3.7
9/19/21 - 1130 77.2 76.4 44 53.4 0.00 0.01 79.4 23.5 1,016.0 1.6 NE | 34 4.8 WNW | 285 266 497 0.7 1.8 90.3 3.8
9/19/21 - 1120 76.5 75.2 45 53.2 0.00 0.01 79.4 23.5 1,016.3 1.2 NNE | 18 4.1 NE | 37 266 488 0.6 1.7 87.9 3.8
9/19/21 - 1110 75.3 73.5 47 52.8 0.00 0.01 79.4 23.5 1,016.3 1.4 NNE | 18 4.3 NW | 322 266 476 0.5 1.6 85.6 3.7
9/19/21 - 1100 73.8 72.9 48 52.6 0.00 0.01 79.5 23.5 1,016.4 1.3 NNE | 21 3.1 N | 1 266 465 0.6 1.5 83.8 3.7
9/19/21 - 1050 73.4 72.6 49 52.6 0.00 0.01 79.5 23.5 1,016.5 1.4 NNE | 17 3.4 NNW | 336 266 450 0.6 1.4 81.8 3.8
9/19/21 - 1040 72.8 71.3 50 52.4 0.00 0.01 79.6 23.5 1,016.5 1.4 NE | 46 3.2 N | 6 266 436 0.5 1.3 79.3 3.7
9/19/21 - 1030 71.5 70.7 52 52.5 0.00 0.01 79.6 23.6 1,016.6 1.7 NE | 35 3.2 NE | 34 266 421 0.8 1.2 77.3 3.7
9/19/21 - 1020 70.7 69.5 54 52.5 0.00 0.01 79.6 23.6 1,016.6 1.3 NE | 38 4.2 E | 95 266 404 0.6 1.1 75.3 3.7
9/19/21 - 1010 70.0 68.6 55 52.6 0.00 0.01 79.6 23.6 1,016.7 1.4 NE | 34 3.3 ENE | 63 266 387 0.6 1.0 73.5 3.7
9/19/21 - 1000 69.6 68.7 56 53.0 0.00 0.01 79.7 23.6 1,016.7 1.8 NE | 42 3.1 NE | 36 267 370 0.6 0.9 72.4 3.7
9/19/21 - 0950 69.5 67.7 58 53.4 0.00 0.01 79.8 23.6 1,016.7 0.4 WNW | 302 1.8 SW | 218 267 353 0.9 0.8 71.0 3.7
9/19/21 - 0940 68.0 67.3 60 53.5 0.00 0.01 79.8 23.7 1,016.8 1.0 NNE | 23 4.1 NNE | 21 266 330 0.4 0.7 69.3 3.7
9/19/21 - 0930 67.3 66.0 63 53.5 0.00 0.01 79.8 23.7 1,016.8 1.0 NNE | 16 2.8 NNE | 23 267 314 0.6 0.6 67.3 3.7
9/19/21 - 0920 66.4 65.4 65 53.6 0.00 0.01 80.0 23.7 1,017.0 0.8 NNW | 340 2.3 WSW | 244 268 294 0.5 0.5 65.7 3.7
9/19/21 - 0910 65.4 63.7 68 53.7 0.00 0.01 79.9 23.7 1,017.0 0.4 NW | 323 1.6 WNW | 303 268 274 0.3 0.4 64.1 3.7
9/19/21 - 0900 64.0 62.4 70 53.3 0.00 0.01 80.0 23.7 1,017.0 0.9 N | 353 2.7 NNE | 27 269 250 0.3 0.4 62.7 3.7
9/19/21 - 0850 62.5 61.9 72 52.9 0.00 0.01 80.0 23.7 1,017.0 1.3 S | 178 3.2 SE | 136 270 232 0.6 0.3 61.0 3.7
9/19/21 - 0840 63.4 62.1 71 53.1 0.00 0.01 80.1 23.7 1,017.2 1.2 NE | 45 2.7 N | 353 271 256 0.5 0.2 59.2 3.7
9/19/21 - 0830 62.3 60.9 75 53.2 0.00 0.01 80.2 23.7 1,017.1 0.4 WNW | 284 2.5 W | 264 275 233 0.3 0.1 57.2 3.7
9/19/21 - 0820 60.9 59.9 78 53.6 0.00 0.01 80.2 23.7 1,017.1 0.2 N | 360 1.1 NW | 323 278 196 0.0 0.1 56.0 3.7
9/19/21 - 0810 60.2 59.5 83 54.5 0.00 0.01 80.3 23.7 1,017.1 0.3 NNE | 19 2.2 NNE | 27 282 146 0.1 0.1 54.7 3.7
9/19/21 - 0800 59.4 56.8 87 54.4 0.00 0.01 80.4 23.7 1,017.0 0.0 SE | 142 0.8 SSE | 148 291 127 0.0 0.1 52.2 3.7
9/19/21 - 0750 56.8 55.4 89 52.9 0.00 0.01 80.5 23.7 1,016.9 0.9 SSE | 150 1.8 S | 177 299 87 0.0 0.1 50.3 3.7
9/19/21 - 0740 55.5 54.2 90 52.0 0.00 0.01 80.5 23.7 1,016.9 0.5 SE | 135 1.4 SE | 136 310 54 0.0 0.1 49.0 3.7
9/19/21 - 0730 54.2 53.1 91 51.1 0.00 0.01 80.5 23.7 1,016.9 0.9 SSE | 151 1.6 S | 174 316 36 0.1 0.1 47.6 3.7
9/19/21 - 0720 53.1 51.9 91 50.0 0.00 0.01 80.5 23.8 1,016.9 0.8 SSE | 155 1.9 SE | 140 327 24 0.0 0.1 46.3 3.7
9/19/21 - 0710 52.4 51.7 90 49.2 0.00 0.01 80.7 23.8 1,016.7 0.5 S | 169 1.4 S | 171 340 11 0.3 0.1 44.5 3.7
9/19/21 - 0700 52.5 52.1 91 49.6 0.00 0.01 80.6 23.8 1,016.7 0.4 SSE | 155 1.1 SSE | 168 340 4 0.0 0.0 43.4 3.7
9/19/21 - 0650 52.4 52.0 90 49.4 0.00 0.01 80.7 23.8 1,016.5 0.1 SE | 145 0.8 SE | 145 365 -3 0.0 0.0 43.2 3.7
9/19/21 - 0640 52.4 52.0 90 49.5 0.00 0.01 80.7 23.8 1,016.3 0.0 N | 0 0.0 SE | 145 363 -6 0.0 0.0 43.2 3.7
9/19/21 - 0630 52.9 52.0 90 49.6 0.00 0.01 80.8 23.8 1,016.2 0.0 N | 0 0.0 SSE | 158 361 -8 0.0 0.0 43.2 3.7
9/19/21 - 0620 53.3 52.8 90 50.3 0.00 0.01 80.8 23.8 1,016.1 0.0 N | 0 0.0 SSE | 167 363 -8 0.0 0.0 43.3 3.7
9/19/21 - 0610 53.2 52.7 90 50.2 0.00 0.01 80.9 23.8 1,016.2 0.0 N | 0 0.0 S | 177 359 -8 0.0 0.0 43.5 3.7
9/19/21 - 0600 52.9 52.5 90 49.8 0.00 0.01 80.9 23.8 1,016.1 0.0 N | 0 0.0 SSE | 166 356 -8 0.0 0.0 43.6 3.7
9/19/21 - 0550 53.0 52.7 90 49.9 0.00 0.01 80.9 23.8 1,016.1 0.0 SSE | 148 0.4 SSE | 148 351 -8 0.0 0.0 43.7 3.7
9/19/21 - 0540 52.9 52.6 89 49.7 0.00 0.01 80.9 23.8 1,016.1 0.0 N | 0 0.0 SSE | 162 346 -8 0.0 0.0 43.8 3.7
9/19/21 - 0530 53.3 52.6 89 49.9 0.00 0.01 80.9 23.8 1,016.0 0.1 SSE | 147 0.9 SE | 145 342 -8 0.0 0.0 44.0 3.7
9/19/21 - 0520 53.2 52.7 89 49.8 0.00 0.01 80.9 23.9 1,016.0 0.3 SSE | 165 0.7 S | 171 338 -8 0.0 0.0 44.2 3.7
9/19/21 - 0510 53.3 52.8 89 49.9 0.00 0.01 80.9 23.8 1,016.0 0.1 SSE | 154 0.6 SSE | 155 333 -9 0.0 0.0 44.3 3.7
9/19/21 - 0500 53.2 52.7 89 49.7 0.00 0.01 80.8 23.8 1,016.0 0.3 S | 173 1.2 S | 177 330 -8 0.0 0.0 44.5 3.7
9/19/21 - 0450 53.6 53.0 89 50.1 0.00 0.01 80.8 23.9 1,015.9 0.1 SSE | 156 0.7 SSE | 152 327 -8 0.0 0.0 44.9 3.7
9/19/21 - 0440 53.7 53.3 89 50.2 0.00 0.01 80.9 23.9 1,015.8 0.1 SSE | 149 0.6 SSE | 149 322 -9 0.0 0.0 45.2 3.7
9/19/21 - 0430 53.7 53.1 89 50.2 0.00 0.01 80.9 23.9 1,015.8 0.3 SSW | 193 1.1 SSW | 206 319 -9 0.0 0.0 45.5 3.7
9/19/21 - 0420 53.9 53.2 88 50.3 0.00 0.01 80.9 23.9 1,015.7 0.3 SSE | 154 1.2 S | 178 314 -9 0.0 0.0 45.6 3.7
9/19/21 - 0410 53.7 52.8 88 49.9 0.00 0.01 80.8 23.9 1,015.8 0.7 S | 191 1.5 SE | 127 308 -10 0.0 0.0 45.5 3.7
9/19/21 - 0400 54.1 53.1 88 50.1 0.00 0.01 80.8 23.9 1,015.8 0.9 SSE | 151 2.4 SE | 140 303 -9 0.0 0.0 44.8 3.7
9/19/21 - 0350 54.1 53.7 88 50.4 0.00 0.01 80.8 23.9 1,015.9 0.5 SSE | 161 1.1 SSE | 159 298 -9 0.0 0.0 44.7 3.7
9/19/21 - 0340 54.1 53.8 88 50.5 0.00 0.01 80.8 23.9 1,016.0 0.3 SSE | 150 0.8 SSE | 152 290 -10 0.0 0.0 44.8 3.7
9/19/21 - 0330 54.3 53.9 87 50.4 0.00 0.01 80.9 23.9 1,016.1 0.3 S | 171 0.9 SSW | 196 278 -10 0.0 0.0 44.8 3.7
9/19/21 - 0320 54.7 54.0 87 50.4 0.00 0.01 80.8 23.9 1,016.1 0.4 SSE | 164 0.9 SSE | 154 265 -10 0.0 0.0 44.7 3.7
9/19/21 - 0310 54.8 54.4 87 50.7 0.00 0.01 80.9 23.9 1,016.2 0.0 SSE | 154 0.7 SSE | 154 255 -11 0.0 0.0 45.0 3.7
9/19/21 - 0300 54.8 54.4 86 50.7 0.00 0.01 81.0 23.9 1,016.3 0.0 SSE | 154 0.5 SSE | 154 248 -11 0.0 0.0 45.2 3.7
9/19/21 - 0250 54.6 54.1 86 50.2 0.00 0.01 81.0 23.9 1,016.4 0.3 SSE | 161 1.0 S | 188 243 -12 0.0 0.0 45.4 3.7
9/19/21 - 0240 54.5 54.1 85 50.0 0.00 0.01 81.0 23.9 1,016.5 0.2 SSE | 159 0.9 SSE | 149 240 -13 0.0 0.0 45.6 3.7
9/19/21 - 0230 54.9 54.2 85 50.2 0.00 0.01 81.0 23.9 1,016.5 0.0 SSE | 152 0.2 SSE | 152 238 -14 0.0 0.0 45.9 3.7
9/19/21 - 0220 54.9 54.6 85 50.4 0.00 0.01 81.3 23.9 1,016.5 0.4 SSE | 158 1.0 SSE | 168 236 -15 0.0 0.0 46.1 3.7
9/19/21 - 0210 54.9 54.5 85 50.2 0.00 0.01 81.7 23.9 1,016.6 0.5 SSE | 150 1.0 SE | 139 234 -16 0.0 0.0 46.5 3.7
9/19/21 - 0200 55.3 54.6 85 50.4 0.00 0.01 81.8 23.9 1,016.7 0.4 SSE | 163 1.1 SSE | 161 232 -18 0.0 0.0 46.6 3.7
9/19/21 - 0150 54.9 54.6 84 50.1 0.00 0.01 81.8 23.9 1,016.7 0.2 SSE | 161 0.8 SSE | 155 230 -21 0.0 0.0 46.7 3.7
9/19/21 - 0140 54.6 54.4 84 49.7 0.00 0.01 82.0 23.9 1,016.7 0.2 SSE | 160 1.7 SE | 146 228 -24 0.0 0.0 46.6 3.7
9/19/21 - 0130 55.1 54.5 83 49.8 0.00 0.01 81.9 23.9 1,016.8 0.6 SSE | 151 1.9 SE | 137 228 -25 0.0 0.0 46.5 3.7
9/19/21 - 0120 55.2 54.7 83 50.0 0.00 0.01 82.0 23.9 1,016.8 0.9 S | 188 1.9 SSW | 205 227 -26 0.1 0.0 46.3 3.7
9/19/21 - 0110 55.3 54.7 82 49.8 0.00 0.01 81.9 23.9 1,016.8 0.4 SE | 140 1.0 SE | 139 226 -29 0.0 0.0 46.1 3.7
9/19/21 - 0100 55.8 55.0 81 49.7 0.00 0.01 82.0 24.0 1,016.7 0.4 SSE | 160 1.0 SSE | 153 227 -32 0.0 17.5 45.7 3.7
9/19/21 - 0050 56.4 55.7 81 50.5 0.00 0.01 82.1 23.9 1,016.8 0.2 SSE | 151 1.1 SE | 145 226 -33 0.0 17.5 45.7 3.7
9/19/21 - 0040 56.3 55.7 82 50.5 0.00 0.01 82.0 24.0 1,016.8 0.5 SSE | 168 1.1 SSW | 200 232 -36 0.0 17.5 45.9 3.7
9/19/21 - 0030 56.1 55.6 81 50.2 0.00 0.01 81.9 24.0 1,016.7 0.1 SSW | 203 1.0 SSW | 206 241 -40 0.0 17.5 46.2 3.7
9/19/21 - 0020 56.3 55.9 81 50.4 0.00 0.01 81.9 24.0 1,016.8 0.1 S | 173 0.7 S | 173 233 -45 0.0 17.5 46.5 3.7
9/19/21 - 0010 56.8 56.2 81 50.8 0.00 0.01 81.8 24.0 1,016.8 0.6 S | 169 1.6 S | 176 241 -48 0.0 17.5 46.8 3.7
9/19/21 - 0000 56.7 56.2 80 50.5 0.00 0.01 81.8 24.0 1,016.9 0.4 SSE | 162 1.0 SSE | 165 247 -54 0.0 17.5 47.1 3.7
9/18/21 - 2350 57.0 56.6 80 50.6 0.00 0.01 81.8 24.0 1,016.9 0.4 S | 176 1.2 S | 180 258 -57 0.0 17.5 47.4 3.7
9/18/21 - 2340 57.4 56.8 79 50.6 0.00 0.01 81.8 24.0 1,016.9 0.5 SSE | 160 1.2 S | 181 262 -59 0.0 17.5 47.5 3.7
9/18/21 - 2330 57.7 57.3 79 50.9 0.00 0.01 81.7 24.0 1,017.0 0.5 S | 184 1.3 SSW | 194 261 -59 0.0 17.5 47.8 3.7
9/18/21 - 2320 58.0 57.3 78 50.8 0.00 0.01 81.7 24.0 1,017.0 0.9 S | 183 1.4 SSW | 200 266 -59 0.0 17.5 48.0 3.7
9/18/21 - 2310 58.4 57.7 77 50.7 0.00 0.01 81.7 24.0 1,017.0 0.1 S | 186 1.1 S | 187 264 -60 0.0 17.5 48.4 3.7
9/18/21 - 2300 58.8 58.3 76 51.1 0.00 0.01 81.6 24.0 1,017.0 0.6 S | 180 1.4 SSW | 205 267 -60 0.0 17.5 48.8 3.7
9/18/21 - 2250 58.9 58.6 76 51.2 0.00 0.01 81.6 24.0 1,017.0 0.2 SSW | 196 1.2 SSW | 199 266 -61 0.0 17.5 49.2 3.7
9/18/21 - 2240 59.3 58.6 75 51.0 0.00 0.01 81.6 24.0 1,017.0 0.2 SSE | 166 0.9 S | 179 268 -62 0.0 17.5 49.7 3.7
9/18/21 - 2230 59.4 59.0 74 50.9 0.00 0.01 81.6 24.0 1,017.0 0.3 SSE | 157 0.9 SE | 146 269 -62 0.0 17.5 50.1 3.7
9/18/21 - 2220 59.7 59.3 74 51.0 0.00 0.01 81.6 24.0 1,017.0 0.7 SW | 220 1.9 WSW | 239 270 -62 0.0 17.5 50.7 3.7
9/18/21 - 2210 59.9 59.4 73 51.1 0.00 0.01 81.6 24.0 1,017.0 0.0 SSW | 205 0.4 SSW | 205 269 -63 0.0 17.5 51.5 3.7
9/18/21 - 2200 60.5 59.8 71 50.8 0.00 0.01 81.6 24.0 1,016.9 0.0 S | 179 0.6 S | 178 269 -65 0.0 17.5 52.4 3.7
9/18/21 - 2150 61.4 60.2 69 50.7 0.00 0.01 81.9 24.0 1,017.0 0.2 SSE | 161 1.0 SSE | 164 269 -65 0.0 17.5 53.8 3.7
9/18/21 - 2140 62.4 61.3 67 50.8 0.00 0.01 82.9 24.0 1,017.0 0.2 SSW | 192 1.2 S | 191 269 -67 0.0 17.5 56.1 3.7
9/18/21 - 2130 62.9 62.3 66 51.3 0.00 0.01 83.0 24.0 1,016.9 1.0 SW | 221 2.3 WSW | 257 269 -70 0.3 17.5 57.4 3.7
9/18/21 - 2120 63.9 62.8 64 51.1 0.00 0.01 83.0 24.0 1,016.8 0.8 WSW | 239 2.0 SW | 219 269 -70 0.2 17.4 58.7 3.7
9/18/21 - 2110 64.5 63.8 64 51.6 0.00 0.01 83.1 24.0 1,016.8 1.3 WSW | 247 4.3 SW | 232 268 -72 0.6 17.4 60.2 3.7
9/18/21 - 2100 65.1 64.2 63 51.8 0.00 0.01 83.2 24.0 1,016.7 1.6 SW | 229 4.9 W | 280 268 -73 0.9 17.3 60.9 3.7
9/18/21 - 2050 65.3 64.9 62 52.0 0.00 0.01 83.2 24.0 1,016.7 2.1 W | 267 4.5 WNW | 282 268 -73 1.3 17.1 61.4 3.7
9/18/21 - 2040 65.5 65.0 62 51.9 0.00 0.01 83.2 24.0 1,016.6 1.8 WSW | 241 4.6 W | 263 268 -74 1.0 16.9 61.3 3.7
9/18/21 - 2030 65.9 65.3 61 51.8 0.00 0.01 83.1 24.0 1,016.4 1.8 WSW | 243 4.6 W | 280 268 -74 0.9 16.7 62.2 3.7
9/18/21 - 2020 66.5 65.9 60 52.0 0.00 0.01 83.1 24.0 1,016.3 2.6 WSW | 246 5.3 W | 262 268 -75 1.5 16.6 63.1 3.7
9/18/21 - 2010 66.8 66.2 60 52.0 0.00 0.01 83.2 24.0 1,016.2 2.7 WSW | 237 4.5 WSW | 237 268 -75 1.7 16.3 63.7 3.7
9/18/21 - 2000 67.2 66.7 59 52.1 0.00 0.01 83.0 24.0 1,016.2 3.1 WSW | 242 5.1 WNW | 282 268 -76 2.1 16.0 64.1 3.8
9/18/21 - 1950 67.6 67.1 58 52.1 0.00 0.01 83.2 24.0 1,016.1 2.9 SW | 236 6.2 W | 276 268 -76 1.9 15.7 64.9 3.8
9/18/21 - 1940 68.1 67.4 57 52.1 0.00 0.01 83.2 24.0 1,015.9 3.1 SW | 214 5.4 SW | 234 268 -77 2.0 15.4 65.3 3.8
9/18/21 - 1930 68.8 67.9 56 52.1 0.00 0.01 83.1 24.0 1,015.9 3.0 SW | 226 5.5 SW | 216 268 -78 2.0 15.0 66.7 3.8
9/18/21 - 1920 70.0 68.7 55 52.3 0.00 0.01 83.0 24.0 1,015.9 4.0 SW | 236 6.8 SW | 231 267 -79 2.7 14.7 67.9 3.8
9/18/21 - 1910 70.7 69.8 53 52.5 0.00 0.01 82.9 24.0 1,015.8 3.5 SW | 234 6.7 WSW | 248 267 -78 2.3 14.3 68.9 3.8
9/18/21 - 1900 71.5 70.6 52 52.6 0.00 0.01 82.9 24.0 1,015.6 4.0 SW | 235 7.6 WSW | 248 267 -77 2.6 13.9 70.2 3.8
9/18/21 - 1850 72.5 71.5 51 52.7 0.00 0.01 82.9 24.0 1,015.5 3.5 SW | 232 6.4 W | 271 267 -74 2.4 13.4 72.0 3.8
9/18/21 - 1840 74.0 72.3 49 52.8 0.00 0.01 82.8 23.9 1,015.4 3.8 SW | 228 7.6 SW | 228 266 -70 2.5 13.0 74.0 3.8
9/18/21 - 1830 75.3 73.8 47 53.0 0.00 0.01 82.8 23.9 1,015.5 4.9 WSW | 249 8.0 W | 260 266 -52 3.3 12.6 76.3 3.8
9/18/21 - 1820 77.0 75.3 45 53.1 0.00 0.01 82.7 23.9 1,015.3 4.1 SW | 232 7.6 WSW | 254 266 -32 2.9 12.1 78.3 3.8
9/18/21 - 1810 77.4 76.7 44 53.2 0.00 0.01 82.6 23.9 1,015.2 3.6 WSW | 238 7.2 WSW | 246 266 -15 2.6 11.6 79.7 3.8
9/18/21 - 1800 78.1 77.3 43 53.2 0.00 0.01 82.5 23.9 1,015.2 4.4 WSW | 243 7.1 SW | 228 266 5 3.2 11.2 81.2 3.8
9/18/21 - 1750 79.5 77.9 41 53.3 0.00 0.01 82.5 23.9 1,015.2 4.1 WSW | 246 7.7 SW | 232 266 27 3.1 10.6 82.7 3.8
9/18/21 - 1740 79.8 78.9 41 53.3 0.00 0.01 82.5 23.9 1,015.2 4.3 WSW | 246 7.1 WSW | 241 266 51 3.0 10.1 83.9 3.8
9/18/21 - 1730 80.9 79.6 39 53.2 0.00 0.01 82.5 23.9 1,015.2 3.9 WSW | 242 6.0 WSW | 258 266 77 2.9 9.6 85.1 3.8
9/18/21 - 1720 82.8 80.8 34 50.8 0.00 0.01 82.5 23.9 1,015.2 2.8 SW | 220 12.6 WSW | 258 265 100 2.2 9.1 86.0 3.8
9/18/21 - 1710 82.6 82.3 32 49.5 0.00 0.01 82.3 23.9 1,015.2 0.9 ESE | 104 2.2 E | 90 265 127 0.3 8.8 86.4 3.8
9/18/21 - 1700 82.6 81.9 32 49.5 0.00 0.01 82.3 23.9 1,015.2 1.5 ENE | 58 3.3 ENE | 71 265 154 0.5 8.7 87.2 3.8
9/18/21 - 1650 82.2 81.8 32 49.6 0.00 0.01 82.2 23.8 1,015.3 1.7 NE | 54 3.5 NNE | 21 265 179 0.6 8.6 87.5 3.8
9/18/21 - 1640 82.8 82.1 32 49.7 0.00 0.01 82.1 23.8 1,015.4 1.7 ENE | 61 3.4 SE | 141 265 206 0.7 8.5 87.8 3.8
9/18/21 - 1630 82.7 82.0 32 49.7 0.00 0.01 82.1 23.8 1,015.5 1.9 NE | 38 3.6 SE | 139 265 233 0.5 8.4 88.0 3.8
9/18/21 - 1620 82.6 81.9 32 49.6 0.00 0.01 82.1 23.8 1,015.7 1.5 NE | 43 3.8 NNE | 26 265 258 0.7 8.3 88.2 3.8
9/18/21 - 1610 82.6 81.9 32 49.8 0.00 0.01 82.0 23.8 1,015.8 1.8 ENE | 62 3.5 E | 97 265 280 0.7 8.2 88.5 3.8
9/18/21 - 1600 82.4 81.6 33 49.9 0.00 0.01 82.0 23.8 1,015.9 2.3 NE | 52 3.9 NE | 39 265 304 1.0 8.1 88.5 3.8
9/18/21 - 1550 82.7 81.5 33 49.9 0.00 0.01 81.9 23.8 1,016.0 2.3 E | 84 6.2 E | 88 265 328 0.9 7.9 89.0 3.8
9/18/21 - 1540 82.5 82.2 32 49.7 0.00 0.01 81.8 23.8 1,016.1 1.8 NE | 35 3.8 NE | 37 265 346 1.1 7.8 89.1 3.8
9/18/21 - 1530 83.1 82.3 32 50.0 0.00 0.01 81.7 23.8 1,016.2 2.2 NE | 56 4.4 NNW | 347 265 366 1.0 7.6 89.3 3.8
9/18/21 - 1520 83.1 81.9 33 50.4 0.00 0.01 81.6 23.8 1,016.3 2.3 NE | 52 4.2 E | 100 265 384 0.9 7.4 89.7 3.8
9/18/21 - 1510 82.9 81.8 34 50.8 0.00 0.01 81.6 23.8 1,016.5 2.1 ENE | 73 4.9 NNE | 25 265 403 0.9 7.3 90.0 3.8
9/18/21 - 1500 83.3 82.2 33 51.2 0.00 0.01 81.6 23.7 1,016.6 2.0 ENE | 60 5.2 ENE | 72 264 418 1.2 7.1 90.4 3.8
9/18/21 - 1450 83.0 82.2 34 51.1 0.00 0.01 81.5 23.8 1,016.7 1.9 ENE | 62 4.3 E | 88 265 437 1.0 6.9 90.5 3.8
9/18/21 - 1440 83.0 82.0 34 51.5 0.00 0.01 81.4 23.7 1,016.8 2.2 E | 96 6.4 ENE | 68 265 454 1.3 6.8 90.8 3.8
9/18/21 - 1430 83.1 81.7 35 52.4 0.00 0.01 81.4 23.7 1,017.0 1.7 NE | 47 3.9 NNE | 12 265 467 1.0 6.6 91.0 3.8
9/18/21 - 1420 82.5 81.6 36 52.7 0.00 0.01 81.3 23.7 1,017.1 1.7 NE | 38 4.3 NE | 52 265 478 0.7 6.4 91.0 3.8
9/18/21 - 1410 81.7 80.3 38 53.3 0.00 0.01 81.3 23.7 1,017.3 1.6 N | 1 4.6 NNW | 338 266 489 0.6 6.3 90.2 3.8
9/18/21 - 1400 80.4 79.6 40 53.5 0.00 0.01 81.1 23.7 1,017.4 1.8 E | 94 4.5 E | 82 266 502 0.9 6.2 89.8 3.8
9/18/21 - 1350 80.0 78.9 41 54.0 0.00 0.01 81.0 23.7 1,017.5 2.5 NE | 55 4.6 ESE | 117 266 511 1.3 6.0 90.2 3.8
9/18/21 - 1340 79.0 77.4 43 54.1 0.00 0.01 81.1 23.7 1,017.9 2.8 ESE | 105 6.1 SSW | 209 266 521 1.6 5.8 90.8 3.8
9/18/21 - 1330 78.7 77.9 43 54.3 0.00 0.01 80.9 23.7 1,017.9 2.2 ENE | 72 4.9 ESE | 114 266 527 1.2 5.6 91.7 3.8
9/18/21 - 1320 78.6 77.3 44 54.4 0.00 0.01 81.0 23.7 1,018.0 2.4 ESE | 111 4.5 ENE | 72 266 531 1.3 5.4 91.7 3.8
9/18/21 - 1310 79.2 77.8 44 54.7 0.00 0.01 80.8 23.7 1,018.0 2.1 NE | 52 4.6 E | 85 266 537 0.9 5.1 92.6 3.8
9/18/21 - 1300 79.0 77.4 45 55.0 0.00 0.01 80.9 23.7 1,018.2 2.2 NNE | 24 5.0 ENE | 66 266 540 1.2 5.0 93.9 3.8
9/18/21 - 1250 77.9 76.9 46 55.2 0.00 0.01 80.9 23.7 1,018.3 1.8 E | 84 5.6 E | 90 266 541 1.0 4.8 94.0 3.8
9/18/21 - 1240 76.8 75.8 48 55.1 0.00 0.01 80.7 23.7 1,018.4 1.9 SE | 137 4.4 SE | 131 266 539 1.2 4.6 93.2 3.8
9/18/21 - 1230 77.5 75.9 47 55.0 0.00 0.01 80.8 23.7 1,018.5 2.2 N | 10 5.8 NNE | 27 266 540 1.4 4.4 92.8 3.8
9/18/21 - 1220 77.9 75.2 47 55.2 0.00 0.01 80.8 23.7 1,018.7 0.8 NNW | 340 4.9 WNW | 287 266 532 1.2 4.2 93.2 3.8
9/18/21 - 1210 75.4 73.4 51 54.9 0.00 0.01 80.7 23.7 1,018.8 1.3 NNW | 328 3.9 N | 0 266 530 0.9 4.0 92.4 3.8
9/18/21 - 1200 73.5 72.8 52 54.7 0.00 0.01 80.7 23.7 1,018.9 1.6 ENE | 59 3.6 SSE | 168 266 524 1.3 3.8 93.2 3.8
9/18/21 - 1150 73.3 71.3 54 54.5 0.00 0.01 80.7 23.7 1,019.0 1.7 SSE | 147 4.0 SSW | 192 266 518 1.4 3.6 92.3 3.8
9/18/21 - 1140 73.1 71.8 53 54.6 0.00 0.01 80.8 23.7 1,019.1 2.2 SSE | 168 5.3 SSW | 194 266 510 1.8 3.4 90.0 3.8
9/18/21 - 1130 73.0 71.4 54 54.9 0.00 0.01 80.8 23.7 1,019.3 0.8 NNW | 344 2.6 N | 354 266 502 0.9 3.1 87.8 3.8
9/18/21 - 1120 72.3 71.4 55 54.7 0.00 0.01 80.7 23.7 1,019.3 1.7 N | 349 5.0 N | 0 266 490 1.0 2.9 86.6 3.8
9/18/21 - 1110 72.4 71.5 55 54.7 0.00 0.01 80.7 23.7 1,019.3 1.5 NNE | 32 3.2 SSW | 196 266 477 0.9 2.8 85.1 3.8
9/18/21 - 1100 71.8 70.0 56 54.6 0.00 0.01 80.7 23.7 1,019.3 0.9 N | 352 4.5 NNW | 342 266 467 0.8 2.6 82.4 3.7
9/18/21 - 1050 69.9 69.0 58 54.2 0.00 0.01 80.8 23.7 1,019.3 2.1 NNE | 24 4.6 NNE | 12 266 456 1.2 2.5 80.9 3.7
9/18/21 - 1040 69.9 68.6 58 53.8 0.00 0.01 80.8 23.7 1,019.4 1.8 NNE | 27 4.7 WNW | 292 266 440 1.2 2.3 79.3 3.7
9/18/21 - 1030 69.9 68.6 58 53.9 0.00 0.01 80.8 23.7 1,019.4 1.2 NNE | 25 3.5 N | 3 266 421 0.7 2.1 77.3 3.7
9/18/21 - 1020 68.8 67.2 61 54.1 0.00 0.01 80.8 23.7 1,019.5 1.2 NNE | 19 3.2 NNE | 21 267 392 0.7 2.0 75.4 3.7
9/18/21 - 1010 68.0 66.7 62 54.0 0.00 0.01 81.0 23.7 1,019.4 1.6 NNE | 14 4.3 NNE | 22 267 386 0.5 1.9 74.2 3.7
9/18/21 - 1000 66.8 66.0 64 53.7 0.00 0.01 81.0 23.7 1,019.4 1.3 SW | 231 3.1 SW | 232 267 357 1.0 1.8 73.0 3.7
9/18/21 - 0950 67.4 66.7 62 53.8 0.00 0.01 81.0 23.8 1,019.3 1.7 ENE | 62 3.4 NNE | 26 268 283 0.7 1.6 72.8 3.7
9/18/21 - 0940 67.3 65.5 63 53.7 0.00 0.01 81.0 23.8 1,019.4 0.9 NNE | 25 2.6 ENE | 60 268 338 0.3 1.5 71.8 3.7
9/18/21 - 0930 65.4 64.6 65 53.1 0.00 0.01 81.0 23.8 1,019.3 0.8 E | 91 2.6 E | 79 268 268 0.6 1.4 71.0 3.7
9/18/21 - 0920 64.9 63.5 67 53.0 0.00 0.01 81.2 23.8 1,019.3 0.9 E | 86 3.0 E | 97 268 226 0.5 1.3 69.9 3.7
9/18/21 - 0910 63.8 63.3 68 52.8 0.00 0.01 81.5 23.8 1,019.2 1.2 NE | 45 3.2 N | 353 270 157 0.2 1.2 67.4 3.7
9/18/21 - 0900 63.9 62.9 68 53.0 0.00 0.01 81.6 23.8 1,019.2 0.7 N | 11 1.8 N | 354 270 163 0.2 1.2 65.1 3.7
9/18/21 - 0850 63.1 62.6 70 52.8 0.00 0.01 81.6 23.8 1,019.2 1.3 WSW | 246 2.7 W | 268 269 192 1.0 1.2 63.5 3.7
9/18/21 - 0840 62.6 60.7 72 52.4 0.00 0.01 81.6 23.9 1,019.2 1.3 WSW | 247 3.5 SW | 221 303 187 1.0 1.0 61.3 3.7
9/18/21 - 0830 60.9 60.4 72 51.7 0.00 0.01 81.6 23.9 1,019.1 2.8 W | 259 4.2 SW | 219 322 171 1.9 0.9 59.4 3.7
9/18/21 - 0820 60.6 59.4 75 51.9 0.00 0.01 81.6 23.9 1,019.0 1.8 WSW | 247 4.0 WSW | 256 338 172 1.2 0.5 57.2 3.7
9/18/21 - 0810 59.6 59.0 79 52.7 0.00 0.01 81.6 23.9 1,018.9 1.9 WSW | 254 4.1 WSW | 238 352 158 1.3 0.3 54.9 3.7
9/18/21 - 0800 59.2 58.4 84 54.1 0.00 0.01 81.6 23.9 1,018.9 0.7 SW | 236 2.9 SW | 222 335 126 0.4 0.1 52.4 3.7
9/18/21 - 0750 58.6 57.0 87 54.1 0.00 0.01 81.7 23.9 1,018.8 0.0 N | 0 0.0 E | 96 342 94 0.0 0.0 50.9 3.7
9/18/21 - 0740 57.0 55.0 89 52.8 0.00 0.01 81.6 23.9 1,018.7 0.1 S | 177 1.0 S | 186 346 64 0.0 0.0 49.2 3.7
9/18/21 - 0730 55.0 53.8 90 51.4 0.00 0.01 81.6 23.9 1,018.5 0.4 S | 188 2.0 WSW | 253 349 38 0.1 0.0 47.3 3.7
9/18/21 - 0720 53.9 52.9 90 50.5 0.00 0.01 81.6 23.9 1,018.4 0.0 SE | 144 0.4 SE | 144 350 22 0.0 0.0 46.1 3.7
9/18/21 - 0710 53.0 52.2 90 49.7 0.00 0.01 81.6 23.9 1,018.2 0.3 SSE | 158 0.8 SSE | 149 348 11 0.0 0.0 45.0 3.7
9/18/21 - 0700 52.9 52.5 90 49.8 0.00 0.01 81.6 23.9 1,018.1 1.1 SSW | 192 2.0 SSW | 205 344 4 0.2 0.0 44.1 3.7
9/18/21 - 0650 52.6 51.9 90 49.2 0.00 0.01 81.6 23.9 1,018.0 0.2 SSW | 211 1.2 SSW | 203 342 -3 0.0 0.0 44.1 3.7
9/18/21 - 0640 53.0 52.0 89 49.2 0.00 0.01 81.6 23.9 1,017.9 0.0 N | 0 0.0 ESE | 105 341 -7 0.0 0.0 44.3 3.7
9/18/21 - 0630 53.1 52.6 89 49.8 0.00 0.01 81.6 23.9 1,017.9 0.0 WSW | 246 0.6 WSW | 247 338 -8 0.0 0.0 44.5 3.7
9/18/21 - 0620 53.0 52.6 89 49.8 0.00 0.01 81.6 23.9 1,017.8 0.0 ESE | 112 0.6 ESE | 113 332 -9 0.0 0.0 44.5 3.7
9/18/21 - 0610 52.9 52.5 89 49.7 0.00 0.01 81.6 23.9 1,017.8 0.4 S | 180 1.1 SSW | 208 328 -9 0.0 0.0 44.6 3.7
9/18/21 - 0600 52.7 52.4 89 49.3 0.00 0.01 81.7 23.9 1,017.8 0.0 SE | 127 0.6 SE | 127 322 -9 0.0 0.0 44.8 3.7
9/18/21 - 0550 53.3 52.3 88 49.4 0.00 0.01 81.6 23.9 1,017.7 0.0 SE | 138 0.4 SE | 142 318 -9 0.0 0.0 44.8 3.7
9/18/21 - 0540 53.3 52.8 89 50.0 0.00 0.01 81.6 23.9 1,017.6 1.0 SSW | 200 2.0 SSW | 212 313 -8 0.0 0.0 44.6 3.7
9/18/21 - 0530 53.2 52.7 88 49.6 0.00 0.01 81.6 24.0 1,017.5 0.5 S | 171 1.2 SSW | 204 310 -9 0.0 0.0 44.7 3.7
9/18/21 - 0520 53.6 53.1 88 50.0 0.00 0.01 81.6 24.0 1,017.4 0.1 SSE | 151 0.9 SSE | 150 304 -10 0.0 0.0 44.9 3.7
9/18/21 - 0510 53.6 53.2 88 50.0 0.00 0.01 81.6 24.0 1,017.5 0.0 SSE | 151 0.5 SSE | 149 297 -10 0.0 0.0 45.1 3.7
9/18/21 - 0500 53.6 53.2 88 49.9 0.00 0.01 81.7 24.0 1,017.5 0.2 S | 172 1.0 S | 184 287 -10 0.0 0.0 45.2 3.7
9/18/21 - 0450 53.8 53.2 88 49.9 0.00 0.01 81.7 24.0 1,017.5 0.2 SE | 143 0.9 SE | 139 278 -10 0.0 0.0 45.3 3.7
9/18/21 - 0440 53.8 53.5 88 50.1 0.00 0.01 81.7 24.0 1,017.5 0.3 S | 176 0.9 S | 182 269 -10 0.0 0.0 45.5 3.7
9/18/21 - 0430 53.9 53.5 88 50.0 0.00 0.01 81.8 24.0 1,017.5 0.2 SSE | 167 0.8 S | 171 262 -11 0.0 0.0 45.6 3.7
9/18/21 - 0420 53.9 53.5 87 50.0 0.00 0.01 81.8 24.0 1,017.5 0.3 SSE | 161 1.5 S | 184 252 -11 0.0 0.0 45.8 3.7
9/18/21 - 0410 54.4 53.6 87 50.4 0.00 0.01 81.8 24.0 1,017.5 0.1 SSE | 148 0.7 SE | 145 247 -11 0.0 0.0 46.0 3.7
9/18/21 - 0400 54.4 54.0 87 50.5 0.00 0.01 81.9 24.0 1,017.7 0.0 SSE | 159 0.7 SSE | 157 241 -12 0.0 0.0 46.3 3.7
9/18/21 - 0350 54.6 54.0 87 50.6 0.00 0.01 81.9 24.0 1,017.7 0.4 SSE | 167 1.0 S | 186 237 -12 0.0 0.0 46.6 3.7
9/18/21 - 0340 54.4 54.0 87 50.5 0.00 0.01 82.0 24.0 1,017.7 0.0 SSE | 164 0.5 SSE | 167 234 -13 0.0 0.0 46.7 3.7
9/18/21 - 0330 54.7 54.1 87 50.6 0.00 0.01 82.1 24.0 1,017.8 0.5 SSE | 149 1.3 SE | 140 231 -14 0.0 0.0 46.8 3.7
9/18/21 - 0320 54.6 54.1 87 50.5 0.00 0.01 82.1 24.0 1,017.8 0.3 S | 176 1.2 SSW | 192 229 -15 0.0 0.0 46.8 3.7
9/18/21 - 0310 54.7 54.2 86 50.5 0.00 0.01 82.1 24.0 1,017.8 0.8 SSE | 161 1.6 SSW | 199 227 -15 0.0 0.0 46.8 3.7
9/18/21 - 0300 55.5 54.5 86 50.8 0.00 0.01 82.2 24.0 1,017.8 0.4 S | 174 1.8 SSW | 195 226 -16 0.0 0.0 46.9 3.7
9/18/21 - 0250 55.5 55.1 86 51.1 0.00 0.01 82.3 24.1 1,017.8 0.3 SSE | 150 0.7 S | 172 225 -17 0.0 0.0 47.1 3.7
9/18/21 - 0240 55.5 55.1 85 51.0 0.00 0.01 82.3 24.1 1,017.8 0.6 S | 169 1.1 S | 187 223 -19 0.0 0.0 47.4 3.7
9/18/21 - 0230 55.7 55.2 85 51.0 0.00 0.01 82.4 24.1 1,017.8 0.4 S | 174 1.4 S | 178 222 -22 0.0 0.0 47.7 3.7
9/18/21 - 0220 55.8 55.3 85 51.1 0.00 0.01 82.4 24.1 1,017.9 0.7 SSE | 156 1.3 SSE | 152 220 -25 0.0 0.0 47.8 3.7
9/18/21 - 0210 55.4 55.0 84 50.4 0.00 0.01 82.4 24.1 1,017.9 0.5 SSE | 152 1.2 SE | 142 218 -28 0.0 0.0 47.7 3.7
9/18/21 - 0200 56.0 55.4 83 50.7 0.00 0.01 82.5 24.1 1,017.8 0.5 SSE | 156 1.5 SE | 141 218 -30 0.0 0.0 47.5 3.7
9/18/21 - 0150 56.1 55.6 83 51.0 0.00 0.01 82.5 24.1 1,017.9 0.4 SSE | 166 1.1 SSE | 162 218 -31 0.0 0.0 47.5 3.7
9/18/21 - 0140 56.3 55.6 82 50.5 0.00 0.01 82.6 24.1 1,017.9 0.5 S | 169 1.0 S | 191 220 -35 0.0 0.0 47.6 3.7
9/18/21 - 0130 56.7 56.3 82 51.1 0.00 0.01 82.6 24.1 1,017.9 0.1 SSE | 158 0.7 SSE | 161 219 -38 0.0 0.0 47.7 3.7
9/18/21 - 0120 56.9 56.4 81 51.0